Latest Coastal Weather Observations for Swanbourne

IDW60701

Issued at 6:23 am WST Monday 26 September 2016 (issued every 10 minutes, with the page automatically refreshed every 10 minutes)

About coastal observations | Map of coastal stations | Coastal observations for WA | Marine services | Other Formats
Station Details ID: 009215 Name: SWANBOURNE Lat: -31.96 Lon: 115.76 Height: 40.96 m
Data from the previous 72 hours. | See also: Recent months at Swanbourne
Date/Time
WST
Temp
°C
Wind Pressure Rain since
9am
mm
Weather Cloud Vis
km
Sea
Height
m
Swell
Dir  Spd
kts
Gust
kts
hPa Trend Height
m
Period
s
Dir
26/06:00am 8.3 NE 4 5 - - 0.0 - - - - - - -
26/05:30am 8.8 NE 4 5 - - 0.0 - - - - - - -
26/05:00am 8.7 NE 4 5 - - 0.0 - - - - - - -
26/04:30am 8.3 NE 4 4 - - 0.0 - - - - - - -
26/04:00am 8.6 ENE 4 4 - - 0.0 - - - - - - -
26/03:30am 9.0 NE 4 5 - - 0.0 - - - - - - -
26/03:00am 8.8 ENE 5 5 - - 0.0 - - - - - - -
26/02:30am 8.6 E 4 5 - - 0.0 - - - - - - -
26/02:00am 9.0 E 5 5 - - 0.0 - - - - - - -
26/01:30am 8.7 E 5 5 - - 0.0 - - - - - - -
26/01:00am 8.9 E 6 6 - - 0.0 - - - - - - -
26/12:30am 9.0 E 5 6 - - 0.0 - - - - - - -
26/12:00am 9.3 E 5 6 - - 0.0 - - - - - - -
 
Date/Time
WST
Temp
°C
Wind Pressure Rain since
9am
mm
Weather Cloud Vis
km
Sea
Height
m
Swell
Dir  Spd
kts
Gust
kts
hPa Trend Height
m
Period
s
Dir
25/11:30pm 9.9 SE 5 6 - - 0.0 - - - - - - -
25/11:00pm 10.1 SE 5 6 - - 0.0 - - - - - - -
25/10:30pm 10.4 SE 5 7 - - 0.0 - - - - - - -
25/10:00pm 10.8 SE 5 6 - - 0.0 - - - - - - -
25/09:30pm 11.1 SSE 5 6 - - 0.0 - - - - - - -
25/09:00pm 11.3 SSE 6 9 - - 0.0 - - - - - - -
25/08:30pm 11.5 SSE 6 8 - - 0.0 - - - - - - -
25/08:00pm 12.3 S 8 12 - - 0.0 - - - - - - -
25/07:30pm 12.1 S 8 14 - - 0.0 - - - - - - -
25/07:00pm 12.2 S 9 14 - - 0.0 - - - - - - -
25/06:30pm 12.3 S 9 13 - - 0.0 - - - - - - -
25/06:00pm 12.8 SSW 10 15 - - 0.0 - - - - - - -
25/05:30pm 13.5 SSW 11 17 - - 0.0 - - - - - - -
25/05:00pm 13.9 SSW 13 21 - - 0.0 - - - - - - -
25/04:30pm 14.2 SSW 12 19 - - 0.0 - - - - - - -
25/04:00pm 14.4 SSW 14 20 - - 0.0 - - - - - - -
25/03:30pm 14.6 SSW 12 17 - - 0.0 - - - - - - -
25/03:00pm 15.1 SSW 12 18 - - 0.0 - - - - - - -
25/02:30pm 14.8 SSW 13 19 - - 0.0 - - - - - - -
25/02:00pm 15.0 SSW 13 19 - - 0.0 - - - - - - -
25/01:30pm 14.6 SSW 14 19 - - 0.0 - - - - - - -
25/01:00pm 14.3 SSW 13 18 - - 0.0 - - - - - - -
25/12:30pm 14.2 SSW 14 19 - - 0.0 - - - - - - -
25/12:00pm 14.1 SSW 14 18 - - 0.0 - - - - - - -
25/11:30am 14.0 SSW 11 17 - - 0.0 - - - - - - -
25/11:00am 15.1 S 7 10 - - 0.0 - - - - - - -
25/10:30am 13.8 SSE 8 12 - - 0.0 - - - - - - -
25/10:00am 13.2 SSE 8 13 - - 0.0 - - - - - - -
25/09:30am 12.4 SSE 9 14 - - 0.0 - - - - - - -
25/09:00am 11.2 SE 8 16 - - 22.2 - - - - - - -
25/08:30am 11.0 SSE 6 13 - - 22.2 - - - - - - -
25/08:00am 10.4 SE 8 12 - - 22.2 - - - - - - -
25/07:30am 10.1 SSE 9 14 - - 22.2 - - - - - - -
25/07:00am 10.3 SE 4 5 - - 21.2 - - - - - - -
25/06:30am 9.9 E 4 5 - - 21.2 - - - - - - -
25/06:00am 9.9 ESE 4 5 - - 18.8 Rain - - - - - -
25/05:30am 9.8 ENE 4 5 - - 17.4 - - - - - - -
25/05:00am 10.0 ENE 4 5 - - 17.2 - - - - - - -
25/04:30am 9.9 ENE 4 5 - - 17.2 - - - - - - -
25/04:00am 10.0 NE 3 4 - - 17.2 - - - - - - -
25/03:30am 10.0 ENE 4 6 - - 16.4 - - - - - - -
25/03:00am 10.3 E 5 7 - - 15.6 Recent precip. - - - - - -
25/02:30am 10.1 ENE 4 5 - - 15.6 - - - - - - -
25/02:00am 10.2 NE 3 4 - - 13.8 - - - - - - -
25/01:30am 10.6 ENE 3 5 - - 9.8 - - - - - - -
25/01:00am 11.3 ESE 8 12 - - 1.4 - - - - - - -
25/12:30am 11.8 SE 7 12 - - 0.0 - - - - - - -
25/12:00am 11.7 ESE 4 7 - - 0.0 - - - - - - -
 
Date/Time
WST
Temp
°C
Wind Pressure Rain since
9am
mm
Weather Cloud Vis
km
Sea
Height
m
Swell
Dir  Spd
kts
Gust
kts
hPa Trend Height
m
Period
s
Dir
24/11:30pm 11.8 ESE 6 10 - - 0.0 - - - - - - -
24/11:00pm 12.3 NNE 4 8 - - 0.0 - - - - - - -
24/10:30pm 12.8 NNW 6 11 - - 0.0 - - - - - - -
24/10:00pm 14.0 NW 9 12 - - 0.0 - - - - - - -
24/09:30pm 14.1 NW 8 11 - - 0.0 - - - - - - -
24/09:00pm 13.6 NW 8 11 - - 0.0 - - - - - - -
24/08:30pm 13.3 NW 6 10 - - 0.0 - - - - - - -
24/08:00pm 13.3 NW 7 9 - - 0.0 - - - - - - -
24/07:30pm 13.2 NW 7 11 - - 0.0 - - - - - - -
24/07:00pm 13.2 NW 9 12 - - 0.0 - - - - - - -
24/06:30pm 13.2 NW 9 13 - - 0.0 - - - - - - -
24/06:00pm 13.6 NW 9 12 - - 0.0 - - - - - - -
24/05:30pm 14.0 NW 8 13 - - 0.0 - - - - - - -
24/05:00pm 14.9 NW 7 11 - - 0.0 - - - - - - -
24/04:30pm 15.0 NW 9 12 - - 0.0 - - - - - - -
24/04:00pm 15.1 NW 8 11 - - 0.0 - - - - - - -
24/03:30pm 16.0 WNW 9 15 - - 0.0 - - - - - - -
24/03:00pm 15.9 NW 12 15 - - 0.0 - - - - - - -
24/02:30pm 16.3 NW 10 14 - - 0.0 - - - - - - -
24/02:00pm 16.9 NW 11 16 - - 0.0 - - - - - - -
24/01:30pm 16.1 NW 12 15 - - 0.0 - - - - - - -
24/01:00pm 15.1 NNW 9 14 - - 0.0 - - - - - - -
24/12:30pm 14.5 NW 6 10 - - 0.0 - - - - - - -
24/12:00pm 14.0 NW 9 13 - - 0.0 - - - - - - -
24/11:30am 14.1 NW 7 10 - - 0.0 - - - - - - -
24/11:00am 14.4 NW 7 11 - - 0.0 - - - - - - -
24/10:30am 14.1 NNW 5 8 - - 0.0 - - - - - - -
24/10:00am 13.5 NE 5 8 - - 0.0 - - - - - - -
24/09:30am 12.1 ENE 4 8 - - 0.0 - - - - - - -
24/09:00am 10.6 E 3 5 - - 1.2 - - - - - - -
24/08:30am 10.0 NE 4 7 - - 1.2 - - - - - - -
24/08:00am 9.7 NE 5 9 - - 1.2 - - - - - - -
24/07:30am 8.7 NE 3 5 - - 1.2 - - - - - - -
24/07:00am 8.4 ENE 5 7 - - 1.2 - - - - - - -
24/06:30am 8.1 ENE 3 6 - - 1.2 - - - - - - -
24/06:00am 8.2 NE 3 5 - - 1.2 - - - - - - -
24/05:30am 8.3 ENE 4 6 - - 1.2 - - - - - - -
24/05:00am 8.4 ENE 4 5 - - 1.2 - - - - - - -
24/04:30am 8.4 ENE 4 6 - - 1.2 - - - - - - -
24/04:00am 8.2 ENE 4 5 - - 1.2 - - - - - - -
24/03:30am 8.2 ENE 4 5 - - 1.2 - - - - - - -
24/03:00am 8.1 NE 2 3 - - 1.2 - - - - - - -
24/02:30am 8.3 NE 2 3 - - 1.2 - - - - - - -
24/02:00am 8.5 NNE 2 2 - - 1.2 - - - - - - -
24/01:30am 8.3 ENE 3 4 - - 1.2 - - - - - - -
24/01:00am 8.4 E 3 4 - - 1.2 - - - - - - -
24/12:30am 8.7 ESE 4 5 - - 1.2 - - - - - - -
24/12:00am 8.7 SE 4 5 - - 1.2 - - - - - - -
 
Date/Time
WST
Temp
°C
Wind Pressure Rain since
9am
mm
Weather Cloud Vis
km
Sea
Height
m
Swell
Dir  Spd
kts
Gust
kts
hPa Trend Height
m
Period
s
Dir
23/11:30pm 8.8 SE 4 5 - - 1.2 - - - - - - -
23/11:00pm 9.1 SE 5 7 - - 1.2 - - - - - - -
23/10:30pm 9.1 SSE 5 9 - - 1.2 - - - - - - -
23/10:00pm 9.0 ESE 4 5 - - 1.2 - - - - - - -
23/09:30pm 9.2 SE 4 6 - - 1.2 - - - - - - -
23/09:00pm 9.7 SSE 6 9 - - 1.0 Rain - - - - - -
23/08:30pm 9.8 SE 5 7 - - 0.8 - - - - - - -
23/08:00pm 10.3 SSE 7 12 - - 0.8 - - - - - - -
23/07:30pm 10.4 SSE 1 2 - - 0.8 - - - - - - -
23/07:00pm 10.6 SSE 5 9 - - 0.8 - - - - - - -
23/06:30pm 10.5 SW 11 18 - - 0.8 - - - - - - -
23/06:00pm 10.6 SSW 9 14 - - 0.6 Recent precip. - - - - - -
23/05:41pm 10.5 SW 15 25 - - 0.6 - - - - - - -
23/05:34pm 11.7 SSW 13 25 - - 0.0 - - - - - - -
23/05:30pm 12.1 S 10 17 - - 0.0 - - - - - - -
23/05:00pm 13.1 SSW 12 18 - - 0.0 - - - - - - -
23/04:30pm 13.7 SSW 13 19 - - 0.0 - - - - - - -
23/04:00pm 13.0 SW 12 19 - - 0.0 - - - - - - -
23/03:30pm 13.1 S 11 15 - - 0.0 - - - - - - -
23/03:00pm 13.8 SSW 13 19 - - 0.0 - - - - - - -
23/02:30pm 13.9 WSW 8 22 - - 0.0 - - - - - - -
23/02:00pm 13.0 SW 17 25 - - 0.0 - - - - - - -
23/01:30pm 14.7 SSW 13 19 - - 0.0 - - - - - - -
23/01:00pm 14.5 SW 13 20 - - 0.0 - - - - - - -
23/12:37pm 13.7 SW 15 27 - - 0.0 - - - - - - -
23/12:30pm 14.2 SW 10 16 - - 0.0 - - - - - - -
23/12:00pm 14.8 SSW 15 21 - - 0.0 - - - - - - -
23/11:30am 14.5 SW 14 21 - - 0.0 - - - - - - -
23/11:00am 14.2 SSW 15 22 - - 0.0 - - - - - - -
23/10:30am 14.3 SSW 11 18 - - 0.0 - - - - - - -
23/10:00am 12.8 SSW 15 22 - - 0.0 - - - - - - -
23/09:30am 12.7 SSW 14 21 - - 0.0 - - - - - - -
23/09:01am 10.8 SW 15 26 - - 0.0 - - - - - - -
23/09:00am 10.9 SW 16 26 - - 10.0 - - - - - - -
23/08:49am 12.0 SW 15 29 - - 10.0 - - - - - - -
23/08:30am 12.8 SSW 13 20 - - 10.0 - - - - - - -
23/08:00am 11.5 SSW 13 20 - - 10.0 - - - - - - -
23/07:30am 10.3 SW 12 20 - - 9.8 - - - - - - -
23/07:14am 11.2 SW 15 31 - - 9.4 - - - - - - -
23/07:00am 12.6 SW 12 21 - - 9.4 - - - - - - -
23/06:30am 12.2 SW 14 21 - - 9.4 - - - - - - -

Other Formats:

Comma delimited format used in spreadsheet applications
http://www.bom.gov.au/fwo/IDW60701/IDW60701.94614.axf

JavaScript Object Notation format (JSON) in row-major order
http://www.bom.gov.au/fwo/IDW60701/IDW60701.94614.json